Time;durP1;ratioP1;P1;durP2;ratioP2;P2;SDS_P1;SDS_P2;PMS_P1;PMS_P2;Temp;Humidity;BMP_temperature;BMP_pressure;BME280_temperature;BME280_humidity;BME280_pressure;Samples;Min_cycle;Max_cycle;Signal;HPM_P1;HPM_P2
2022/07/22 00:00:15;;;;;;;1030.25;963.75;;;;;;;23.45;65.89;101251.56;688514;28;22407;-67
2022/07/22 00:00:37;;;;;;;1023.97;957.70;;;;;;;23.45;66.06;101247.97;686865;28;69459;-66
2022/07/22 00:00:59;;;;;;;1021.30;955.13;;;;;;;23.43;66.11;101250.97;687187;28;45217;-67
2022/07/22 00:01:20;;;;;;;989.58;924.63;;;;;;;23.34;66.27;101239.53;688675;28;23430;-67
2022/07/22 00:01:41;;;;;;;974.08;909.58;;;;;;;23.42;66.45;101252.06;687695;28;44298;-67
2022/07/22 00:02:04;;;;;;;983.30;918.55;;;;;;;23.43;66.47;101259.25;689625;28;21476;-67
2022/07/22 00:02:25;;;;;;;983.25;918.50;;;;;;;23.44;66.27;101255.41;687193;28;69789;-67
2022/07/22 00:02:46;;;;;;;975.03;910.53;;;;;;;23.46;66.14;101249.66;689138;28;21525;-67
2022/07/22 00:03:07;;;;;;;988.47;923.47;;;;;;;23.44;66.02;101254.59;688676;28;22367;-67
2022/07/22 00:03:30;;;;;;;983.20;918.45;;;;;;;23.44;66.31;101254.59;687892;28;45242;-67
2022/07/22 00:03:51;;;;;;;978.58;914.00;;;;;;;23.44;66.09;101254.59;688055;28;44108;-67
2022/07/22 00:04:12;;;;;;;969.70;905.50;;;;;;;23.45;65.92;101257.09;687357;28;22348;-67
2022/07/22 00:04:33;;;;;;;976.88;912.38;;;;;;;23.45;66.07;101256.22;687945;28;21342;-67
2022/07/22 00:04:57;;;;;;;973.00;908.50;;;;;;;23.45;66.10;101261.75;688431;28;23531;-67
2022/07/22 00:05:18;;;;;;;971.47;907.08;;;;;;;23.41;65.87;101249.56;685789;28;92830;-67
2022/07/22 00:05:39;;;;;;;961.30;897.30;;;;;;;23.42;65.91;101256.72;688491;28;23495;-67
2022/07/22 00:06:03;;;;;;;966.90;902.73;;;;;;;23.42;65.98;101253.97;688248;28;46366;-67
2022/07/22 00:06:25;;;;;;;970.40;906.20;;;;;;;23.39;65.86;101258.91;685623;28;90903;-67
2022/07/22 00:06:47;;;;;;;976.60;912.13;;;;;;;23.39;66.12;101256.16;688219;28;46395;-67
2022/07/22 00:07:08;;;;;;;979.95;915.25;;;;;;;23.37;65.64;101255.59;687116;28;46252;-67
2022/07/22 00:07:29;;;;;;;989.22;924.28;;;;;;;23.38;66.00;101256.41;688253;28;23493;-66
2022/07/22 00:07:50;;;;;;;981.47;916.83;;;;;;;23.36;66.02;101258.59;688953;28;22389;-66
2022/07/22 00:08:13;;;;;;;986.33;921.45;;;;;;;23.36;66.21;101255.84;688280;28;22212;-66
2022/07/22 00:08:34;;;;;;;991.38;926.22;;;;;;;23.34;66.03;101255.25;685919;28;69431;-66
2022/07/22 00:08:55;;;;;;;998.55;933.05;;;;;;;23.36;66.01;101256.66;688176;28;22400;-66
2022/07/22 00:09:17;;;;;;;979.53;914.85;;;;;;;23.35;66.20;101267.94;689064;28;22260;-67
2022/07/22 00:09:38;;;;;;;1005.33;939.80;;;;;;;23.33;65.98;101259.91;687428;28;45806;-68
2022/07/22 00:10:00;;;;;;;978.30;913.67;;;;;;;23.32;66.07;101255.50;688549;28;22407;-66
2022/07/22 00:10:22;;;;;;;966.53;902.38;;;;;;;23.29;66.22;101258.75;688872;28;1795;-66
2022/07/22 00:10:43;;;;;;;989.78;924.75;;;;;;;23.29;66.31;101261.50;688399;28;23503;-67
2022/07/22 00:11:05;;;;;;;996.83;931.47;;;;;;;23.29;66.58;101260.66;688240;28;22224;-67
2022/07/22 00:11:26;;;;;;;977.22;912.63;;;;;;;23.28;66.37;101261.75;686690;28;45227;-66
2022/07/22 00:11:47;;;;;;;989.33;924.30;;;;;;;23.28;66.41;101261.75;688789;28;21312;-67
2022/07/22 00:12:09;;;;;;;994.60;929.40;;;;;;;23.27;66.54;101260.09;688431;28;22119;-66
2022/07/22 00:12:30;;;;;;;1009.17;943.40;;;;;;;23.27;66.56;101262.84;687515;28;44474;-68
2022/07/22 00:12:52;;;;;;;1009.17;943.42;;;;;;;23.26;66.57;101258.41;688617;28;22155;-67
2022/07/22 00:13:13;;;;;;;1009.30;943.55;;;;;;;23.26;66.43;101259.25;688612;28;22977;-66
2022/07/22 00:13:35;;;;;;;1038.88;971.97;;;;;;;23.26;66.37;101262.00;687501;28;44399;-66
2022/07/22 00:13:56;;;;;;;1038.93;972.00;;;;;;;23.26;66.46;101264.78;687914;28;45616;-66
2022/07/22 00:14:18;;;;;;;1026.55;960.15;;;;;;;23.24;66.74;101261.41;688815;28;21423;-66
2022/07/22 00:14:39;;;;;;;1027.55;961.17;;;;;;;23.25;66.40;101268.59;689041;28;22496;-66
2022/07/22 00:15:00;;;;;;;1032.97;966.38;;;;;;;23.24;66.61;101264.16;687590;28;44374;-66
2022/07/22 00:15:22;;;;;;;1037.25;970.47;;;;;;;23.22;66.50;101266.34;687983;28;11572;-67
2022/07/22 00:15:44;;;;;;;1019.70;953.58;;;;;;;23.23;66.34;101270.78;688043;28;44445;-66
2022/07/22 00:16:06;;;;;;;1025.68;959.28;;;;;;;23.21;66.56;101271.03;688805;28;23304;-66
2022/07/22 00:16:27;;;;;;;1032.85;966.10;;;;;;;23.20;66.67;101271.28;685558;28;69037;-66
2022/07/22 00:16:49;;;;;;;1022.08;955.85;;;;;;;23.21;66.63;101275.69;687723;28;22376;-66
2022/07/22 00:17:11;;;;;;;1031.88;965.17;;;;;;;23.24;66.89;101271.59;686652;28;44401;-65
2022/07/22 00:17:32;;;;;;;1027.90;961.50;;;;;;;23.24;66.66;101283.44;686782;28;44378;-66
2022/07/22 00:17:53;;;;;;;1015.63;949.67;;;;;;;23.23;66.93;101272.69;689579;28;22398;-66
2022/07/22 00:18:15;;;;;;;1017.47;951.45;;;;;;;23.24;66.75;101274.34;689181;28;22398;-66
2022/07/22 00:18:37;;;;;;;1024.50;958.20;;;;;;;23.22;66.74;101277.38;690691;28;1489;-66
2022/07/22 00:18:59;;;;;;;993.17;928.03;;;;;;;23.21;66.84;101268.28;690135;28;3183;-65
2022/07/22 00:19:21;;;;;;;976.80;912.20;;;;;;;23.22;66.86;101285.63;689656;28;21667;-66
2022/07/22 00:19:43;;;;;;;967.90;903.65;;;;;;;23.17;66.97;101275.34;687632;28;69681;-66
2022/07/22 00:20:07;;;;;;;978.72;914.13;;;;;;;23.17;66.68;101278.09;687182;28;21613;-67
2022/07/22 00:20:29;;;;;;;972.92;908.53;;;;;;;23.16;66.85;101281.94;685083;28;114902;-66
2022/07/22 00:20:52;;;;;;;984.17;919.35;;;;;;;23.15;66.96;101279.44;688064;28;46444;-66
2022/07/22 00:21:13;;;;;;;988.45;923.47;;;;;;;23.15;66.82;101283.03;685602;28;67412;-66
2022/07/22 00:21:36;;;;;;;984.92;920.13;;;;;;;23.14;67.12;101286.88;687131;28;4166;-67
2022/07/22 00:21:57;;;;;;;981.55;916.75;;;;;;;23.11;66.98;101284.59;688343;28;22510;-67
2022/07/22 00:22:18;;;;;;;981.47;916.78;;;;;;;23.12;67.15;101279.91;688744;28;23413;-67
2022/07/22 00:22:40;;;;;;;984.13;919.40;;;;;;;23.11;67.06;101278.28;688954;28;46282;-67
2022/07/22 00:23:01;;;;;;;985.45;920.60;;;;;;;23.14;66.96;101283.28;687607;28;46481;-67
2022/07/22 00:23:23;;;;;;;979.30;914.70;;;;;;;23.12;67.18;101280.78;689361;28;1090;-67
2022/07/22 00:23:44;;;;;;;972.25;907.85;;;;;;;23.15;66.86;101282.19;688503;28;23502;-67
2022/07/22 00:24:06;;;;;;;983.97;919.20;;;;;;;23.11;66.81;101273.59;688463;28;22487;-67
2022/07/22 00:24:28;;;;;;;984.72;919.85;;;;;;;23.13;66.83;101285.19;687787;28;40597;-67
2022/07/22 00:24:49;;;;;;;953.53;889.78;;;;;;;23.11;67.06;101278.28;688946;28;21309;-67
2022/07/22 00:25:10;;;;;;;963.63;899.53;;;;;;;23.13;67.21;101282.44;687639;28;1261;-67
2022/07/22 00:25:34;;;;;;;976.13;911.63;;;;;;;23.14;66.78;101283.28;688659;28;1042;-67
2022/07/22 00:25:55;;;;;;;1008.63;942.90;;;;;;;23.14;66.89;101280.53;686878;28;69365;-67
2022/07/22 00:26:17;;;;;;;986.28;921.38;;;;;;;23.14;67.07;101281.34;687698;28;45097;-67
2022/07/22 00:26:38;;;;;;;973.53;909.13;;;;;;;23.16;66.97;101279.19;687760;28;21529;-67
2022/07/22 00:26:59;;;;;;;997.08;931.67;;;;;;;23.18;67.28;101276.19;687704;28;23783;-67
2022/07/22 00:27:21;;;;;;;990.25;925.13;;;;;;;23.18;67.08;101277.03;688593;28;22395;-67
2022/07/22 00:27:42;;;;;;;1002.80;937.33;;;;;;;23.19;66.99;101280.63;687259;28;46327;-67
2022/07/22 00:28:04;;;;;;;971.92;907.60;;;;;;;23.21;67.08;101282.03;688207;28;22396;-67
2022/07/22 00:28:25;;;;;;;979.63;914.95;;;;;;;23.23;66.84;101281.81;684569;28;46260;-67
2022/07/22 00:28:47;;;;;;;987.47;922.58;;;;;;;23.24;67.14;101283.44;686637;28;22408;-68
2022/07/22 00:29:08;;;;;;;983.15;918.42;;;;;;;23.20;67.12;101280.38;685009;28;46432;-67
2022/07/22 00:29:30;;;;;;;987.50;922.60;;;;;;;23.22;67.11;101280.13;682225;28;46179;-67
2022/07/22 00:29:51;;;;;;;997.08;931.78;;;;;;;23.27;66.67;101287.63;686049;28;21530;-67
2022/07/22 00:30:13;;;;;;;999.20;933.83;;;;;;;23.25;66.89;101276.88;686247;28;22410;-67
2022/07/22 00:30:35;;;;;;;1003.55;937.95;;;;;;;23.24;66.75;101272.44;685407;28;69213;-67
2022/07/22 00:30:56;;;;;;;1006.38;940.65;;;;;;;23.26;66.53;101286.81;684045;28;22339;-67
2022/07/22 00:31:18;;;;;;;1000.63;935.23;;;;;;;23.26;66.67;101277.69;685908;28;981;-67
2022/07/22 00:31:40;;;;;;;996.60;931.30;;;;;;;23.25;66.79;101276.03;686039;28;46173;-67
2022/07/22 00:32:01;;;;;;;991.03;925.97;;;;;;;23.26;66.82;101284.06;683457;28;46418;-66
2022/07/22 00:32:22;;;;;;;981.05;916.30;;;;;;;23.28;66.96;101284.63;684929;28;22410;-67
2022/07/22 00:32:43;;;;;;;953.25;889.55;;;;;;;23.29;66.60;101285.47;683477;28;22340;-66
2022/07/22 00:33:05;;;;;;;971.30;907.00;;;;;;;23.28;66.80;101281.06;684478;28;23342;-68
2022/07/22 00:33:27;;;;;;;972.50;908.20;;;;;;;23.26;66.86;101278.53;683909;28;46375;-67
2022/07/22 00:33:48;;;;;;;988.65;923.67;;;;;;;23.27;66.85;101291.22;684995;28;46184;-66
2022/07/22 00:34:09;;;;;;;984.78;919.97;;;;;;;23.26;66.63;101285.97;687927;28;22403;-67
2022/07/22 00:34:30;;;;;;;997.30;932.03;;;;;;;23.25;66.72;101281.56;686816;28;22378;-67
2022/07/22 00:34:53;;;;;;;1022.72;956.45;;;;;;;23.24;66.46;101282.63;688623;28;22457;-67
2022/07/22 00:35:15;;;;;;;1001.22;935.72;;;;;;;23.22;66.66;101285.63;687129;28;67479;-67
2022/07/22 00:35:36;;;;;;;995.22;930.03;;;;;;;23.23;66.51;101283.69;684834;28;42535;-67
2022/07/22 00:35:58;;;;;;;989.45;924.40;;;;;;;23.21;66.92;101275.69;686089;28;43148;-67
2022/07/22 00:36:20;;;;;;;980.60;915.97;;;;;;;23.20;66.56;101280.38;684219;28;23327;-67
2022/07/22 00:36:41;;;;;;;1001.38;936.00;;;;;;;23.19;66.71;101281.44;658293;28;65716;-68
2022/07/22 00:37:04;;;;;;;1012.65;946.72;;;;;;;23.18;66.65;101279.78;683343;28;21551;-67
2022/07/22 00:37:25;;;;;;;1016.67;950.70;;;;;;;23.19;67.15;101283.38;681089;28;69423;-67
2022/07/22 00:37:47;;;;;;;1029.28;962.83;;;;;;;23.16;66.96;101281.94;686701;28;23441;-67
2022/07/22 00:38:09;;;;;;;1033.72;967.00;;;;;;;23.17;66.58;101283.63;686324;28;45236;-67
2022/07/22 00:38:30;;;;;;;1032.78;966.13;;;;;;;23.16;66.56;101281.13;687786;28;43748;-67
2022/07/22 00:38:52;;;;;;;1028.70;962.25;;;;;;;23.15;66.96;101276.66;688602;28;22412;-67
2022/07/22 00:39:15;;;;;;;1026.07;959.67;;;;;;;23.14;66.77;101277.78;684796;28;45236;-67
2022/07/22 00:39:37;;;;;;;1020.25;954.13;;;;;;;23.12;66.63;101280.78;680020;29;70173;-67
2022/07/22 00:39:58;;;;;;;1003.13;937.58;;;;;;;23.11;66.60;101272.75;681832;28;44385;-67
2022/07/22 00:40:19;;;;;;;999.85;934.45;;;;;;;23.10;66.88;101279.34;682656;28;22328;-67
2022/07/22 00:40:41;;;;;;;1013.47;947.58;;;;;;;23.07;66.65;101274.28;683834;28;46276;-66
2022/07/22 00:41:04;;;;;;;1017.22;951.15;;;;;;;23.09;66.93;101277.66;684808;28;44463;-67
2022/07/22 00:41:26;;;;;;;1009.38;943.58;;;;;;;23.08;66.84;101278.72;686293;28;45310;-66
2022/07/22 00:41:48;;;;;;;1012.78;946.88;;;;;;;23.03;66.96;101276.72;689355;28;46659;-68
2022/07/22 00:42:09;;;;;;;1022.50;956.20;;;;;;;23.04;66.70;101272.91;687391;28;44406;-67
2022/07/22 00:42:30;;;;;;;1034.03;967.33;;;;;;;23.05;66.72;101282.81;686165;28;23490;-67
2022/07/22 00:42:52;;;;;;;1012.03;946.10;;;;;;;23.01;67.14;101271.47;688553;28;23317;-67
2022/07/22 00:43:15;;;;;;;1016.03;949.97;;;;;;;23.04;66.91;101281.16;687340;28;45234;-67
2022/07/22 00:43:49;;;;;;;1002.33;936.78;;;;;;;23.04;67.32;101275.66;684400;28;46379;-67
2022/07/22 00:44:10;;;;;;;980.58;915.83;;;;;;;23.02;67.05;101278.66;680068;28;137879;-67
2022/07/22 00:44:32;;;;;;;976.70;912.20;;;;;;;23.01;66.93;101274.22;683925;28;23529;-67
2022/07/22 00:44:54;;;;;;;971.22;906.92;;;;;;;23.00;67.14;101272.53;683849;28;44402;-67
2022/07/22 00:45:15;;;;;;;971.67;907.35;;;;;;;22.99;67.07;101281.91;683883;28;21487;-67
2022/07/22 00:45:36;;;;;;;979.25;914.58;;;;;;;22.98;67.27;101271.94;685537;28;46528;-67
2022/07/22 00:45:58;;;;;;;970.15;905.88;;;;;;;22.99;67.10;101279.16;687682;28;22390;-67
2022/07/22 00:46:20;;;;;;;963.70;899.60;;;;;;;22.98;67.18;101277.47;686048;28;44326;-67
2022/07/22 00:46:41;;;;;;;989.83;924.70;;;;;;;22.97;67.16;101286.78;686584;28;51057;-67
2022/07/22 00:47:04;;;;;;;1003.38;937.67;;;;;;;22.95;67.21;101279.88;687932;28;1661;-67
2022/07/22 00:47:26;;;;;;;1011.60;945.72;;;;;;;22.95;66.79;101282.63;685572;28;21214;-67
2022/07/22 00:47:48;;;;;;;982.00;917.17;;;;;;;22.92;67.19;101281.19;685128;28;46410;-67
2022/07/22 00:48:09;;;;;;;984.08;919.17;;;;;;;22.93;67.41;101276.53;685383;28;21531;-67
2022/07/22 00:48:30;;;;;;;992.28;927.10;;;;;;;22.92;67.19;101283.13;686356;28;22181;-67
2022/07/22 00:48:52;;;;;;;1003.78;938.20;;;;;;;22.91;67.32;101281.44;687219;28;45271;-67
2022/07/22 00:49:14;;;;;;;1001.30;935.80;;;;;;;22.88;67.63;101279.19;688509;28;21000;-67
2022/07/22 00:49:35;;;;;;;995.17;929.92;;;;;;;22.86;67.57;101282.19;688637;28;46253;-67
2022/07/22 00:49:56;;;;;;;1005.90;940.17;;;;;;;22.87;67.39;101278.34;689132;28;46235;-66
2022/07/22 00:50:20;;;;;;;1023.45;956.95;;;;;;;22.84;67.27;101281.59;688143;28;21277;-67
2022/07/22 00:50:43;;;;;;;1023.05;956.67;;;;;;;22.85;67.61;101286.00;686130;28;90988;-67
2022/07/22 00:51:04;;;;;;;1029.25;962.75;;;;;;;22.85;67.76;101280.50;688849;28;46313;-67
2022/07/22 00:51:26;;;;;;;1035.38;968.60;;;;;;;22.82;67.63;101279.09;687138;28;23476;-67
2022/07/22 00:51:48;;;;;;;1034.53;967.75;;;;;;;22.83;67.58;101279.91;687101;28;69663;-67
2022/07/22 00:52:10;;;;;;;1020.35;954.15;;;;;;;22.81;67.51;101284.84;688678;28;22402;-67
2022/07/22 00:52:33;;;;;;;1021.85;955.58;;;;;;;22.79;67.55;101281.47;686592;28;69425;-67
2022/07/22 00:52:54;;;;;;;1018.72;952.63;;;;;;;22.77;67.80;101284.47;684790;28;46390;-67
2022/07/22 00:53:16;;;;;;;1020.90;954.70;;;;;;;22.76;67.62;101277.31;683046;28;46456;-68
2022/07/22 00:53:37;;;;;;;1031.38;964.78;;;;;;;22.76;68.10;101284.72;681995;28;21535;-67
2022/07/22 00:54:04;;;;;;;1027.27;960.87;;;;;;;22.70;67.77;101274.72;681177;29;23516;-67
2022/07/22 00:54:25;;;;;;;1009.25;943.45;;;;;;;22.70;68.07;101282.97;675298;29;136359;-68
2022/07/22 00:54:46;;;;;;;1011.88;946.08;;;;;;;22.73;68.13;101282.47;681172;28;45233;-69
2022/07/22 00:55:08;;;;;;;1017.50;951.45;;;;;;;22.71;68.17;101279.13;683833;28;22330;-67
2022/07/22 00:55:33;;;;;;;1004.40;938.72;;;;;;;22.71;68.02;101288.25;684101;28;44342;-67
2022/07/22 00:55:55;;;;;;;969.72;905.38;;;;;;;22.70;67.99;101281.06;683324;28;115115;-67
2022/07/22 00:56:19;;;;;;;981.13;916.42;;;;;;;22.66;68.08;101280.72;682800;28;69367;-68
2022/07/22 00:56:41;;;;;;;968.97;904.70;;;;;;;22.69;68.10;101279.38;681973;28;89621;-68
2022/07/22 00:57:04;;;;;;;971.25;906.75;;;;;;;22.67;68.23;101281.53;683570;28;44383;-67
2022/07/22 00:57:25;;;;;;;973.25;908.70;;;;;;;22.68;68.00;101281.31;686122;28;46279;-68
2022/07/22 00:57:47;;;;;;;987.83;922.85;;;;;;;22.70;68.06;101277.47;685585;28;44323;-68
2022/07/22 00:58:08;;;;;;;982.15;917.45;;;;;;;22.70;68.08;101288.50;687280;28;23514;-69
2022/07/22 00:58:29;;;;;;;1006.22;940.55;;;;;;;22.68;67.87;101283.22;685699;28;22400;-67
2022/07/22 00:58:55;;;;;;;1005.08;939.40;;;;;;;22.69;67.88;101279.38;682882;28;46390;-67
2022/07/22 00:59:16;;;;;;;1008.80;943.05;;;;;;;22.69;67.90;101284.88;680312;28;113812;-67
2022/07/22 00:59:37;;;;;;;987.80;922.70;;;;;;;22.70;67.71;101282.97;682758;28;21601;-67
2022/07/22 00:59:59;;;;;;;1003.10;937.45;;;;;;;22.71;67.76;101281.88;680901;28;46221;-66
2022/07/22 01:00:21;;;;;;;1005.10;939.40;;;;;;;22.71;67.93;101281.88;682675;28;22369;-67
2022/07/22 01:00:43;;;;;;;1011.08;945.22;;;;;;;22.70;67.73;101281.06;683280;28;67486;-67
2022/07/22 01:01:05;;;;;;;1017.85;951.75;;;;;;;22.71;67.52;101282.75;685491;28;45378;-66
2022/07/22 01:01:26;;;;;;;1021.65;955.42;;;;;;;22.68;67.34;101275.78;684411;28;22417;-66
2022/07/22 01:01:48;;;;;;;1009.50;943.72;;;;;;;22.72;67.40;101275.31;686230;28;46390;-67
2022/07/22 01:02:09;;;;;;;1001.97;936.47;;;;;;;22.72;67.45;101275.31;685155;28;22392;-67
2022/07/22 01:02:31;;;;;;;1010.00;944.20;;;;;;;22.70;67.19;101283.81;685604;28;22399;-67
2022/07/22 01:02:52;;;;;;;1001.42;935.92;;;;;;;22.71;67.16;101284.63;683177;28;44537;-67
2022/07/22 01:03:16;;;;;;;991.05;925.95;;;;;;;22.71;67.33;101277.22;684737;28;45327;-67
2022/07/22 01:03:37;;;;;;;996.38;931.08;;;;;;;22.73;67.31;101288.81;681615;28;69281;-67
2022/07/22 01:04:05;;;;;;;996.55;931.17;;;;;;;22.73;66.88;101279.72;684394;28;21544;-67
2022/07/22 01:04:26;;;;;;;1006.13;940.40;;;;;;;22.74;66.95;101284.16;680139;28;138220;-67
2022/07/22 01:04:47;;;;;;;1005.20;939.53;;;;;;;22.72;66.68;101272.56;682659;28;22391;-67
2022/07/22 01:05:09;;;;;;;998.53;933.00;;;;;;;22.73;67.06;101286.06;684179;28;22387;-67
2022/07/22 01:05:31;;;;;;;999.58;933.88;;;;;;;22.74;66.56;101284.97;684031;28;44391;-67
2022/07/22 01:05:54;;;;;;;995.80;930.38;;;;;;;22.74;66.58;101275.88;684445;28;46297;-67
2022/07/22 01:06:15;;;;;;;994.10;928.70;;;;;;;22.75;66.50;101274.81;685414;28;67439;-67
2022/07/22 01:06:36;;;;;;;1009.35;943.38;;;;;;;22.74;66.58;101279.47;685423;28;44177;-67
2022/07/22 01:06:57;;;;;;;1007.85;941.92;;;;;;;22.77;66.86;101284.47;687735;28;21503;-67
2022/07/22 01:07:20;;;;;;;1006.78;940.88;;;;;;;22.76;66.53;101285.59;688104;28;23560;-67
2022/07/22 01:07:41;;;;;;;998.90;933.38;;;;;;;22.77;66.46;101275.41;683844;28;68334;-67
2022/07/22 01:08:05;;;;;;;1001.85;936.20;;;;;;;22.76;66.19;101282.81;682970;28;21544;-67
2022/07/22 01:08:26;;;;;;;1009.20;943.22;;;;;;;22.75;66.52;101275.63;680546;28;90450;-67
2022/07/22 01:08:49;;;;;;;1014.92;948.83;;;;;;;22.76;66.07;101277.31;682664;28;23451;-67
2022/07/22 01:09:11;;;;;;;1011.45;945.47;;;;;;;22.77;66.40;101283.66;681991;28;47296;-67
2022/07/22 01:09:32;;;;;;;976.92;912.22;;;;;;;22.78;66.11;101282.59;683010;28;44366;-67
2022/07/22 01:09:54;;;;;;;1002.10;936.55;;;;;;;22.77;66.39;101278.97;683453;28;45845;-67
2022/07/22 01:10:16;;;;;;;1020.75;954.40;;;;;;;22.75;66.53;101266.56;686573;28;22465;-67
2022/07/22 01:10:37;;;;;;;1036.32;969.30;;;;;;;22.83;65.96;101279.91;686389;28;67370;-67
2022/07/22 01:11:06;;;;;;;1016.35;949.97;;;;;;;22.82;66.27;101281.84;686420;28;21280;-67
2022/07/22 01:11:28;;;;;;;1007.10;941.25;;;;;;;22.82;66.07;101278.25;682397;28;127964;-67
2022/07/22 01:11:50;;;;;;;999.58;934.08;;;;;;;22.85;66.21;101280.50;686820;28;44447;-67
2022/07/22 01:12:11;;;;;;;1021.70;955.25;;;;;;;22.85;65.77;101286.00;689721;28;22418;-66
2022/07/22 01:12:33;;;;;;;1032.07;965.28;;;;;;;22.84;66.01;101278.84;686472;28;46239;-66
2022/07/22 01:12:55;;;;;;;999.83;934.28;;;;;;;22.83;65.74;101278.00;688396;28;23397;-67
2022/07/22 01:13:16;;;;;;;1002.45;936.80;;;;;;;22.85;65.88;101281.34;688842;28;45281;-67
2022/07/22 01:13:38;;;;;;;1007.25;941.42;;;;;;;22.84;65.78;101279.69;688673;28;46283;-67
2022/07/22 01:13:59;;;;;;;1012.40;946.47;;;;;;;22.83;65.74;101280.75;689830;28;22392;-67
2022/07/22 01:14:21;;;;;;;1017.28;951.10;;;;;;;22.83;65.62;101279.91;689764;28;23442;-67
2022/07/22 01:14:42;;;;;;;1039.45;972.45;;;;;;;22.83;65.90;101285.44;685619;28;69309;-67
2022/07/22 01:15:05;;;;;;;1031.22;964.58;;;;;;;22.81;65.64;101280.16;687754;28;22400;-67
2022/07/22 01:15:26;;;;;;;1021.03;954.72;;;;;;;22.82;65.84;101283.75;688351;28;45230;-66
2022/07/22 01:15:48;;;;;;;1006.85;941.05;;;;;;;22.81;65.76;101277.41;689067;28;45182;-66
2022/07/22 01:16:11;;;;;;;1001.30;935.70;;;;;;;22.81;65.84;101277.41;687569;28;46367;-66
2022/07/22 01:16:32;;;;;;;1007.00;941.25;;;;;;;22.79;66.03;101279.59;658787;28;44243;-67
2022/07/22 01:16:54;;;;;;;1016.95;950.75;;;;;;;22.81;65.89;101287.59;684629;28;46306;-67
2022/07/22 01:17:16;;;;;;;1006.45;940.72;;;;;;;22.81;65.65;101276.59;687082;28;23337;-67
2022/07/22 01:17:37;;;;;;;1013.10;947.13;;;;;;;22.78;65.53;101280.66;684179;28;44395;-67
2022/07/22 01:17:59;;;;;;;1016.55;950.45;;;;;;;22.75;65.58;101278.41;680569;29;45307;-68
2022/07/22 01:18:20;;;;;;;1010.33;944.33;;;;;;;22.76;65.75;101276.47;678761;29;23292;-67
2022/07/22 01:18:42;;;;;;;1012.80;946.70;;;;;;;22.74;65.92;101282.22;677828;28;22346;-67
2022/07/22 01:19:05;;;;;;;1007.88;941.97;;;;;;;22.73;65.80;101276.97;681106;28;69452;-67
2022/07/22 01:19:26;;;;;;;1009.05;943.10;;;;;;;22.73;65.99;101277.81;682355;28;45320;-68
2022/07/22 01:19:48;;;;;;;1004.88;939.17;;;;;;;22.73;65.96;101283.31;685333;28;46508;-67
2022/07/22 01:20:11;;;;;;;998.95;933.45;;;;;;;22.71;65.58;101281.88;687787;28;22376;-67
2022/07/22 01:20:35;;;;;;;998.00;932.50;;;;;;;22.73;65.76;101282.47;687916;28;70276;-67
2022/07/22 01:20:56;;;;;;;1001.97;936.38;;;;;;;22.73;65.88;101282.47;684661;28;90239;-66
2022/07/22 01:21:17;;;;;;;1000.42;934.90;;;;;;;22.73;66.02;101285.22;687308;28;22388;-67
2022/07/22 01:21:39;;;;;;;1002.37;936.77;;;;;;;22.74;65.90;101278.63;682550;28;45233;-67
2022/07/22 01:22:01;;;;;;;1009.53;943.67;;;;;;;22.74;65.82;101284.16;682566;28;67498;-66
2022/07/22 01:22:23;;;;;;;1015.55;949.47;;;;;;;22.73;66.02;101276.97;684255;28;22321;-67
2022/07/22 01:22:44;;;;;;;997.67;932.28;;;;;;;22.73;65.79;101279.72;684114;28;45058;-66
2022/07/22 01:23:06;;;;;;;1000.35;934.85;;;;;;;22.74;65.77;101275.88;687601;28;22273;-67
2022/07/22 01:23:28;;;;;;;1003.25;937.55;;;;;;;22.75;66.09;101281.16;682870;28;67480;-67
2022/07/22 01:23:49;;;;;;;997.83;932.33;;;;;;;22.75;65.60;101278.41;683534;28;23511;-68
2022/07/22 01:24:10;;;;;;;985.97;920.90;;;;;;;22.74;66.11;101276.72;684252;28;22229;-67
2022/07/22 01:24:33;;;;;;;981.40;916.53;;;;;;;22.72;65.67;101272.56;681837;28;46339;-67
2022/07/22 01:24:54;;;;;;;971.08;906.55;;;;;;;22.76;65.83;101280.06;679590;29;46446;-67
2022/07/22 01:25:16;;;;;;;999.33;933.67;;;;;;;22.76;65.81;101277.31;680230;28;45275;-67
2022/07/22 01:25:37;;;;;;;1020.70;954.25;;;;;;;22.77;65.72;101284.47;682627;28;22371;-67
2022/07/22 01:25:59;;;;;;;1016.72;950.47;;;;;;;22.76;65.90;101276.47;676231;29;22402;-67
2022/07/22 01:26:21;;;;;;;990.60;925.30;;;;;;;22.75;65.45;101274.81;678980;29;45246;-66
2022/07/22 01:26:45;;;;;;;1008.90;943.00;;;;;;;22.75;65.83;101272.88;676386;29;112736;-67
2022/07/22 01:27:06;;;;;;;1010.35;944.42;;;;;;;22.75;65.47;101280.31;680064;29;45133;-66
2022/07/22 01:27:29;;;;;;;1003.47;937.90;;;;;;;22.72;65.48;101275.31;679735;28;47008;-67
2022/07/22 01:27:51;;;;;;;992.90;927.65;;;;;;;22.72;65.59;101275.31;684184;28;46287;-67
2022/07/22 01:28:12;;;;;;;1004.95;939.25;;;;;;;22.70;65.60;101269.22;686244;28;44343;-67
2022/07/22 01:28:34;;;;;;;996.63;931.25;;;;;;;22.73;65.71;101272.31;684807;28;22386;-67
2022/07/22 01:28:56;;;;;;;1005.85;940.17;;;;;;;22.74;65.75;101276.72;680930;28;46590;-69
2022/07/22 01:29:17;;;;;;;1021.13;954.83;;;;;;;22.74;65.47;101273.97;682670;28;46214;-68
2022/07/22 01:29:39;;;;;;;1006.30;940.58;;;;;;;22.71;65.77;101276.38;685401;28;21257;-67
2022/07/22 01:30:00;;;;;;;1030.05;963.40;;;;;;;22.74;65.60;101278.63;684988;28;44145;-67
2022/07/22 01:30:21;;;;;;;1040.43;973.38;;;;;;;22.74;65.35;101276.72;685946;28;22392;-68
2022/07/22 01:30:43;;;;;;;1043.03;975.88;;;;;;;22.74;65.60;101279.47;686015;28;22234;-67
2022/07/22 01:31:05;;;;;;;1050.00;982.50;;;;;;;22.73;65.51;101279.72;686738;28;46748;-68
2022/07/22 01:31:27;;;;;;;1048.80;981.43;;;;;;;22.71;65.61;101274.47;684750;28;45193;-68
2022/07/22 01:31:50;;;;;;;1047.55;980.08;;;;;;;22.71;65.60;101271.72;681785;28;69428;-67
2022/07/22 01:32:11;;;;;;;1041.18;973.88;;;;;;;22.73;65.53;101275.06;683123;28;46416;-67
2022/07/22 01:32:32;;;;;;;1039.53;972.42;;;;;;;22.74;65.19;101278.63;679842;29;44364;-67
2022/07/22 01:32:53;;;;;;;1045.93;978.55;;;;;;;22.73;65.31;101282.47;678966;29;21294;-68
2022/07/22 01:33:15;;;;;;;1048.15;980.75;;;;;;;22.73;65.38;101276.97;681957;28;22394;-67
2022/07/22 01:33:38;;;;;;;1049.15;981.75;;;;;;;22.71;65.24;101277.22;682176;28;45286;-67
2022/07/22 01:33:59;;;;;;;1036.90;970.00;;;;;;;22.72;65.41;101275.31;683097;28;47110;-67
2022/07/22 01:34:21;;;;;;;1042.30;975.13;;;;;;;22.70;65.26;101282.97;684299;28;42953;-67
2022/07/22 01:34:43;;;;;;;1027.40;960.75;;;;;;;22.74;65.56;101281.41;683417;28;44385;-67
2022/07/22 01:35:06;;;;;;;1030.00;963.30;;;;;;;22.74;65.31;101284.16;680538;29;45235;-67
2022/07/22 01:35:29;;;;;;;1039.65;972.58;;;;;;;22.75;65.08;101274.81;676730;29;68347;-67
2022/07/22 01:35:51;;;;;;;1039.78;972.70;;;;;;;22.72;65.16;101273.38;677282;29;69529;-67
2022/07/22 01:36:12;;;;;;;1032.47;965.70;;;;;;;22.75;64.98;101285.81;681796;28;22399;-67
2022/07/22 01:36:34;;;;;;;1025.45;959.00;;;;;;;22.73;65.24;101283.31;679649;28;46598;-67
2022/07/22 01:36:56;;;;;;;1002.97;937.17;;;;;;;22.73;65.07;101280.56;682264;28;46298;-67
2022/07/22 01:37:18;;;;;;;1000.58;934.85;;;;;;;22.73;64.99;101288.81;685307;28;45118;-67
2022/07/22 01:37:39;;;;;;;1003.45;937.70;;;;;;;22.71;65.07;101279.13;688194;28;21510;-67